Time;durP1;ratioP1;P1;durP2;ratioP2;P2;SDS_P1;SDS_P2;PMS_P1;PMS_P2;Temp;Humidity;BMP_temperature;BMP_pressure;BME280_temperature;BME280_humidity;BME280_pressure;Samples;Min_cycle;Max_cycle;Signal;HPM_P1;HPM_P2
2024/02/09 00:03:01;;;;;;;10.18;3.05;;;13.20;99.90;;;;;;10125945;28;20750;-68
2024/02/09 00:07:52;;;;;;;10.02;3.40;;;13.20;99.90;;;;;;10098728;28;20059;-69
2024/02/09 00:12:42;;;;;;;8.45;3.40;;;13.30;99.90;;;;;;10085024;28;20132;-68
2024/02/09 00:17:33;;;;;;;8.10;2.97;;;13.30;99.90;;;;;;10099234;28;20017;-67
2024/02/09 00:22:25;;;;;;;9.32;3.35;;;13.30;99.90;;;;;;10094417;28;20032;-69
2024/02/09 00:27:16;;;;;;;6.22;2.83;;;13.20;99.90;;;;;;10086113;28;20049;-67
2024/02/09 00:32:06;;;;;;;7.63;3.08;;;13.20;99.90;;;;;;10105200;28;20041;-67
2024/02/09 00:36:57;;;;;;;10.68;2.50;;;13.10;99.90;;;;;;10112812;28;20078;-67
2024/02/09 00:41:50;;;;;;;4.68;2.65;;;13.10;99.90;;;;;;10109860;28;20068;-68
2024/02/09 00:46:42;;;;;;;6.47;2.65;;;13.10;99.90;;;;;;10105697;28;20045;-67
2024/02/09 00:51:33;;;;;;;3.65;1.73;;;13.10;99.90;;;;;;10103022;28;20036;-68
2024/02/09 00:56:24;;;;;;;6.22;2.53;;;13.10;99.90;;;;;;10100986;28;20029;-69
2024/02/09 01:01:14;;;;;;;3.38;1.95;;;13.10;99.90;;;;;;10103065;28;20037;-68
2024/02/09 01:06:06;;;;;;;4.40;2.50;;;13.20;99.90;;;;;;10098920;28;20590;-67
2024/02/09 01:10:57;;;;;;;8.63;2.42;;;13.20;99.90;;;;;;10087176;28;20439;-67
2024/02/09 03:04:21;;;;;;;6.75;2.25;;;12.70;99.90;;;;;;10103015;28;20035;-67
2024/02/09 03:09:11;;;;;;;5.63;2.25;;;12.70;99.90;;;;;;10102094;28;20081;-67
2024/02/09 03:14:02;;;;;;;5.93;2.30;;;12.80;99.90;;;;;;10077511;28;20061;-67
2024/02/09 03:18:53;;;;;;;5.57;1.85;;;12.80;99.90;;;;;;10103052;28;20081;-67
2024/02/09 03:23:43;;;;;;;10.43;3.00;;;12.80;99.90;;;;;;10096901;28;20021;-67
2024/02/09 03:28:34;;;;;;;7.00;2.13;;;12.80;99.90;;;;;;10097166;28;20084;-67
2024/02/09 03:33:24;;;;;;;4.30;2.30;;;12.80;99.90;;;;;;10098051;28;20045;-68
2024/02/09 03:38:15;;;;;;;5.35;2.40;;;12.80;99.90;;;;;;10104457;28;20098;-68
2024/02/09 03:43:08;;;;;;;8.40;1.98;;;12.80;99.90;;;;;;10099769;28;20040;-68
2024/02/09 03:48:00;;;;;;;6.43;1.90;;;12.80;99.90;;;;;;10101796;28;20037;-68
2024/02/09 03:52:51;;;;;;;4.80;2.50;;;12.80;99.90;;;;;;10096506;28;20024;-68
2024/02/09 03:57:41;;;;;;;3.25;1.88;;;12.80;99.90;;;;;;10100793;28;20044;-68
2024/02/09 04:02:32;;;;;;;3.70;1.25;;;12.70;99.90;;;;;;10096554;28;20022;-68
2024/02/09 04:07:22;;;;;;;2.92;1.65;;;12.70;99.90;;;;;;10095860;28;20426;-68
2024/02/09 04:12:13;;;;;;;5.22;2.05;;;12.70;99.90;;;;;;10095741;28;20029;-68
2024/02/09 04:17:06;;;;;;;4.57;1.90;;;12.70;99.90;;;;;;10081566;28;20035;-67
2024/02/09 04:21:57;;;;;;;3.58;1.45;;;12.80;99.90;;;;;;10098402;28;20068;-68
2024/02/09 04:26:48;;;;;;;5.07;2.20;;;12.80;99.90;;;;;;10097141;28;20522;-67
2024/02/09 04:31:41;;;;;;;4.28;1.33;;;12.80;99.90;;;;;;10079908;28;20183;-68
2024/02/09 04:36:33;;;;;;;3.35;1.67;;;12.90;99.90;;;;;;10097484;28;20036;-67
2024/02/09 04:41:24;;;;;;;2.22;1.58;;;12.80;99.90;;;;;;10098004;28;20031;-68
2024/02/09 04:46:22;;;;;;;4.30;1.30;;;12.80;99.90;;;;;;10106204;28;20131;-68
2024/02/09 04:51:13;;;;;;;5.22;1.60;;;12.90;99.90;;;;;;10106094;28;20056;-68
2024/02/09 04:56:04;;;;;;;4.93;2.10;;;12.90;99.90;;;;;;10103659;28;20541;-68
2024/02/09 05:00:54;;;;;;;3.22;1.42;;;12.90;99.90;;;;;;10111958;28;20029;-68
2024/02/09 05:05:45;;;;;;;2.33;1.25;;;12.90;99.90;;;;;;10102509;28;20047;-68
2024/02/09 05:10:37;;;;;;;4.55;1.50;;;12.90;99.90;;;;;;10105252;28;20021;-69
2024/02/09 05:15:27;;;;;;;4.40;1.23;;;13.00;99.90;;;;;;10105162;28;20021;-68
2024/02/09 05:20:18;;;;;;;4.90;1.83;;;13.00;99.90;;;;;;10104799;28;20017;-68
2024/02/09 05:25:09;;;;;;;4.78;2.33;;;13.00;99.90;;;;;;10102182;28;20056;-68
2024/02/09 05:29:59;;;;;;;3.47;1.50;;;13.00;99.90;;;;;;10103352;28;20049;-68
2024/02/09 05:34:51;;;;;;;4.03;1.80;;;13.10;99.90;;;;;;10101430;28;20025;-68
2024/02/09 05:39:45;;;;;;;2.25;1.35;;;13.10;99.90;;;;;;10106350;28;20035;-68
2024/02/09 05:44:35;;;;;;;3.60;1.60;;;13.10;99.90;;;;;;10094580;28;20594;-68
2024/02/09 05:49:26;;;;;;;7.20;1.75;;;13.00;99.90;;;;;;10101668;28;20128;-67
2024/02/09 05:54:17;;;;;;;4.90;1.67;;;13.00;99.90;;;;;;10099166;28;20031;-68
2024/02/09 05:59:08;;;;;;;2.63;1.27;;;13.10;99.90;;;;;;10099575;28;20044;-68
2024/02/09 06:03:59;;;;;;;2.63;1.15;;;13.00;99.90;;;;;;10097713;28;20394;-68
2024/02/09 06:08:50;;;;;;;2.58;1.30;;;13.00;99.90;;;;;;10102310;28;20437;-67
2024/02/09 06:13:44;;;;;;;3.47;1.67;;;13.10;99.90;;;;;;10099369;28;20533;-67
2024/02/09 06:18:35;;;;;;;2.53;1.30;;;13.00;99.90;;;;;;10102637;28;20025;-67
2024/02/09 06:23:26;;;;;;;2.80;1.10;;;13.00;99.90;;;;;;10104981;28;20029;-67
2024/02/09 06:28:16;;;;;;;5.30;2.60;;;13.00;99.90;;;;;;10098876;28;20201;-67
2024/02/09 06:33:08;;;;;;;2.20;1.20;;;13.00;99.90;;;;;;10090138;28;20178;-67
2024/02/09 06:37:58;;;;;;;2.95;1.20;;;13.00;99.90;;;;;;10086857;28;20025;-68
2024/02/09 06:42:49;;;;;;;3.60;1.10;;;13.00;99.90;;;;;;10099410;28;20024;-68
2024/02/09 06:47:41;;;;;;;5.20;2.03;;;13.00;99.90;;;;;;10097800;28;20056;-68
2024/02/09 06:52:32;;;;;;;5.05;1.58;;;13.10;99.90;;;;;;10096311;28;20110;-69
2024/02/09 06:57:22;;;;;;;2.25;1.25;;;13.00;99.90;;;;;;10099144;28;20559;-69
2024/02/09 07:02:13;;;;;;;4.60;1.52;;;13.00;99.90;;;;;;10096985;28;20020;-68
2024/02/09 07:07:08;;;;;;;2.17;1.38;;;13.00;99.90;;;;;;10099234;28;20040;-68
2024/02/09 07:11:58;;;;;;;4.47;1.50;;;13.10;99.90;;;;;;10097622;28;20024;-68
2024/02/09 07:16:50;;;;;;;4.53;1.98;;;13.10;99.90;;;;;;10096687;28;20120;-68
2024/02/09 07:21:41;;;;;;;2.25;1.25;;;13.10;99.90;;;;;;10097085;28;20014;-67
2024/02/09 07:26:32;;;;;;;2.05;1.58;;;13.10;99.90;;;;;;10096929;28;20072;-67
2024/02/09 07:31:23;;;;;;;3.17;1.58;;;13.10;99.90;;;;;;10096614;28;20393;-68
2024/02/09 07:36:14;;;;;;;6.03;2.00;;;13.10;99.90;;;;;;10091786;28;20025;-69
2024/02/09 07:41:05;;;;;;;5.72;2.00;;;13.00;99.90;;;;;;10071661;28;20037;-71
2024/02/09 07:45:55;;;;;;;5.10;1.65;;;13.00;99.90;;;;;;10092732;28;20120;-68
2024/02/09 07:50:51;;;;;;;3.50;1.50;;;13.10;99.90;;;;;;10097170;28;20494;-68
2024/02/09 07:55:42;;;;;;;;;;;13.10;99.90;;;;;;10092151;28;20051;-67
2024/02/09 08:00:32;;;;;;;3.97;1.40;;;13.20;99.90;;;;;;10087643;28;20468;-67
2024/02/09 08:05:24;;;;;;;4.22;1.38;;;13.10;99.90;;;;;;10093697;28;20087;-68
2024/02/09 08:10:15;;;;;;;2.13;0.93;;;13.20;99.90;;;;;;10093884;28;20032;-68
2024/02/09 08:15:09;;;;;;;3.75;1.50;;;13.20;99.90;;;;;;10100588;28;20286;-66
2024/02/09 08:20:00;;;;;;;3.08;1.40;;;13.20;99.90;;;;;;10093855;28;20640;-67
2024/02/09 08:24:51;;;;;;;3.47;1.80;;;13.20;99.90;;;;;;10095397;28;20052;-67
2024/02/09 08:29:42;;;;;;;2.65;1.40;;;13.20;99.90;;;;;;10102077;28;20137;-68
2024/02/09 08:34:32;;;;;;;4.40;1.95;;;13.30;99.90;;;;;;10097196;28;20021;-67
2024/02/09 08:39:23;;;;;;;2.72;1.38;;;13.20;99.90;;;;;;10100662;28;20490;-68
2024/02/09 08:44:14;;;;;;;3.67;1.33;;;13.30;99.90;;;;;;10098980;28;20083;-67
2024/02/09 08:49:04;;;;;;;4.97;1.48;;;13.30;99.90;;;;;;10101154;28;20029;-68
2024/02/09 08:53:55;;;;;;;3.78;1.58;;;13.40;99.90;;;;;;10096389;28;20013;-66
2024/02/09 08:58:46;;;;;;;3.78;1.70;;;13.50;99.90;;;;;;10101718;28;20398;-69
2024/02/09 09:03:37;;;;;;;3.17;1.35;;;13.50;99.90;;;;;;10082452;28;20508;-67
2024/02/09 09:08:28;;;;;;;3.05;1.10;;;13.50;99.90;;;;;;10096243;28;20068;-67
2024/02/09 09:13:19;;;;;;;6.13;1.50;;;13.60;99.90;;;;;;10098264;28;20131;-68
2024/02/09 09:18:09;;;;;;;2.45;1.30;;;13.60;99.90;;;;;;10098417;28;20029;-66
2024/02/09 09:23:01;;;;;;;4.80;2.03;;;13.70;99.90;;;;;;10099811;28;20029;-67
2024/02/09 09:27:52;;;;;;;2.42;1.33;;;13.80;99.90;;;;;;10103747;28;20518;-67
2024/02/09 09:32:42;;;;;;;2.13;0.98;;;13.80;99.90;;;;;;10100261;28;20051;-66
2024/02/09 09:37:33;;;;;;;3.33;1.70;;;13.90;99.90;;;;;;10089050;28;20040;-67
2024/02/09 09:42:26;;;;;;;2.83;1.27;;;13.90;99.90;;;;;;10098273;28;20025;-67
2024/02/09 09:47:17;;;;;;;3.00;1.35;;;13.90;99.90;;;;;;10096724;28;20133;-67
2024/02/09 09:52:14;;;;;;;7.55;1.63;;;13.90;99.90;;;;;;10099444;28;20078;-67
2024/02/09 09:57:05;;;;;;;1.80;1.05;;;13.80;99.90;;;;;;10090609;28;20025;-68
2024/02/09 10:01:56;;;;;;;3.20;1.45;;;13.90;99.90;;;;;;10095561;28;20013;-67
2024/02/09 10:06:47;;;;;;;3.90;1.67;;;13.90;99.90;;;;;;10093473;28;20029;-68
2024/02/09 10:11:40;;;;;;;4.93;1.83;;;13.90;99.90;;;;;;10076519;28;20387;-66
2024/02/09 10:16:31;;;;;;;2.80;1.48;;;13.90;99.90;;;;;;10093363;28;20059;-67
2024/02/09 10:21:21;;;;;;;3.05;1.48;;;13.90;99.90;;;;;;10095581;28;20063;-67
2024/02/09 10:26:13;;;;;;;3.17;1.45;;;13.90;99.90;;;;;;10096582;28;20045;-65
2024/02/09 10:31:04;;;;;;;2.33;1.60;;;14.00;99.90;;;;;;10097372;28;20535;-66
2024/02/09 10:35:56;;;;;;;1.52;1.20;;;14.00;99.90;;;;;;10091455;28;20076;-66
2024/02/09 10:40:53;;;;;;;4.93;1.38;;;14.00;99.90;;;;;;10098657;28;20116;-65
2024/02/09 10:45:45;;;;;;;4.05;1.40;;;14.10;99.90;;;;;;10087825;28;20537;-66
2024/02/09 10:50:35;;;;;;;3.40;1.75;;;14.10;99.90;;;;;;10089674;28;20448;-67
2024/02/09 10:55:33;;;;;;;1.90;0.98;;;14.10;99.90;;;;;;10084515;28;20490;-66
2024/02/09 11:00:25;;;;;;;4.28;1.63;;;14.20;99.90;;;;;;10091549;28;20504;-67
2024/02/09 11:05:16;;;;;;;3.40;1.35;;;14.20;99.90;;;;;;10097835;28;20506;-66
2024/02/09 11:10:07;;;;;;;2.20;1.45;;;14.30;99.90;;;;;;10094034;28;20078;-64
2024/02/09 11:14:57;;;;;;;2.72;1.42;;;14.30;99.90;;;;;;10093380;28;20021;-66
2024/02/09 11:19:51;;;;;;;4.35;1.23;;;14.30;99.90;;;;;;10078121;28;20448;-65
2024/02/09 11:24:47;;;;;;;4.68;1.70;;;14.30;99.90;;;;;;10092323;28;20049;-67
2024/02/09 11:29:38;;;;;;;2.50;1.63;;;14.30;99.90;;;;;;10096280;28;20432;-66
2024/02/09 11:34:34;;;;;;;5.10;1.85;;;14.30;99.90;;;;;;10092786;28;20036;-66
2024/02/09 11:39:25;;;;;;;4.47;1.75;;;14.30;99.90;;;;;;10091695;28;20045;-65
2024/02/09 11:44:17;;;;;;;3.47;1.63;;;14.30;99.90;;;;;;10091367;28;20025;-66
2024/02/09 11:49:08;;;;;;;2.92;1.48;;;14.30;99.90;;;;;;10086469;28;20072;-66
2024/02/09 11:53:58;;;;;;;5.07;1.45;;;14.40;99.90;;;;;;10081399;28;20702;-66
2024/02/09 11:58:49;;;;;;;2.33;1.40;;;14.30;99.90;;;;;;10090551;28;20025;-67
2024/02/09 12:03:40;;;;;;;5.82;1.60;;;14.40;99.90;;;;;;10087363;28;20367;-67
2024/02/09 12:08:31;;;;;;;3.00;1.60;;;14.40;99.90;;;;;;10095213;28;20044;-68
2024/02/09 12:13:21;;;;;;;2.38;1.55;;;14.40;99.90;;;;;;10074272;28;20033;-67
2024/02/09 12:18:12;;;;;;;5.30;1.60;;;14.40;99.90;;;;;;10090927;28;20087;-67
2024/02/09 12:23:04;;;;;;;6.00;1.42;;;14.40;99.90;;;;;;10093773;28;20029;-67
2024/02/09 12:28:00;;;;;;;2.50;1.25;;;14.40;99.90;;;;;;10094480;28;20044;-68
2024/02/09 12:32:51;;;;;;;4.65;1.80;;;14.40;99.90;;;;;;10094372;28;20386;-68
2024/02/09 12:37:42;;;;;;;1.42;1.10;;;14.50;99.90;;;;;;10074421;28;20039;-67
2024/02/09 12:42:33;;;;;;;3.40;1.30;;;14.50;99.90;;;;;;10087169;28;20033;-67
2024/02/09 12:47:24;;;;;;;1.98;1.15;;;14.50;99.90;;;;;;10089960;28;20048;-66
2024/02/09 12:52:15;;;;;;;4.00;1.50;;;14.60;99.90;;;;;;10087695;28;20140;-67
2024/02/09 12:57:08;;;;;;;3.47;1.27;;;14.60;99.90;;;;;;10087161;28;20040;-69
2024/02/09 13:02:00;;;;;;;3.53;1.15;;;14.70;99.90;;;;;;10092956;28;20441;-67
2024/02/09 13:06:51;;;;;;;3.25;1.10;;;14.70;99.90;;;;;;10081133;28;20048;-68
2024/02/09 13:11:42;;;;;;;3.17;1.10;;;14.70;99.90;;;;;;10100708;28;20048;-66
2024/02/09 13:16:32;;;;;;;1.98;1.30;;;14.70;99.90;;;;;;10098188;28;20029;-68
2024/02/09 13:21:23;;;;;;;4.82;1.10;;;14.70;99.90;;;;;;10095549;28;20670;-68
2024/02/09 13:26:15;;;;;;;3.38;1.67;;;14.70;99.90;;;;;;10102232;28;20081;-68
2024/02/09 13:31:09;;;;;;;2.13;1.13;;;14.70;99.90;;;;;;10102993;28;20337;-65
2024/02/09 13:35:59;;;;;;;2.25;2.00;;;14.70;99.90;;;;;;10088144;28;20467;-66
2024/02/09 13:40:52;;;;;;;2.50;1.15;;;14.70;99.90;;;;;;10087167;28;20720;-68
2024/02/09 13:45:44;;;;;;;3.78;1.55;;;14.70;99.90;;;;;;10068078;28;20036;-66
2024/02/09 13:50:35;;;;;;;1.63;1.13;;;14.70;99.90;;;;;;10097680;28;20056;-64
2024/02/09 13:55:27;;;;;;;2.35;1.02;;;14.70;99.90;;;;;;10095593;28;20555;-64
2024/02/09 14:00:19;;;;;;;2.83;1.35;;;14.70;99.90;;;;;;10094021;28;20079;-66
2024/02/09 14:05:09;;;;;;;2.90;1.00;;;14.70;99.90;;;;;;10080839;28;20039;-66
2024/02/09 14:10:00;;;;;;;3.17;1.33;;;14.70;99.90;;;;;;10092015;28;20136;-65
2024/02/09 14:14:51;;;;;;;2.72;1.23;;;14.80;99.90;;;;;;10094171;28;20032;-65
2024/02/09 14:19:44;;;;;;;3.15;1.40;;;14.80;99.90;;;;;;10092301;28;20044;-65
2024/02/09 14:24:37;;;;;;;2.72;1.40;;;14.70;99.90;;;;;;10091904;28;20045;-66
2024/02/09 14:29:30;;;;;;;3.45;1.42;;;14.70;99.90;;;;;;10063134;28;20040;-65
2024/02/09 14:34:20;;;;;;;2.10;1.30;;;14.70;99.90;;;;;;10090926;28;20078;-66
2024/02/09 14:39:13;;;;;;;2.10;1.17;;;14.70;99.90;;;;;;10091237;28;20025;-64
2024/02/09 14:44:06;;;;;;;3.72;1.90;;;14.70;99.90;;;;;;10094620;28;20052;-64
2024/02/09 14:48:57;;;;;;;2.97;1.23;;;14.70;99.90;;;;;;10092828;28;20064;-66
2024/02/09 14:53:49;;;;;;;4.68;1.50;;;14.70;99.90;;;;;;10093384;28;20075;-65
2024/02/09 14:58:39;;;;;;;4.30;1.20;;;14.70;99.90;;;;;;10096409;28;20025;-67
2024/02/09 15:03:37;;;;;;;2.13;1.88;;;14.70;99.90;;;;;;10092869;28;20025;-65
2024/02/09 15:08:30;;;;;;;2.47;1.38;;;14.60;99.90;;;;;;10095923;28;20044;-65
2024/02/09 15:13:26;;;;;;;2.85;1.15;;;14.60;99.90;;;;;;10095747;28;20033;-64
2024/02/09 15:18:17;;;;;;;2.25;1.17;;;14.50;99.90;;;;;;10095669;28;20551;-65
2024/02/09 15:23:08;;;;;;;2.45;1.00;;;14.50;99.90;;;;;;10096209;28;20024;-64
2024/02/09 15:28:00;;;;;;;1.83;1.17;;;14.40;99.90;;;;;;10094595;28;20049;-64
2024/02/09 15:32:52;;;;;;;1.85;0.73;;;14.40;99.90;;;;;;10092924;28;20302;-65
2024/02/09 15:37:43;;;;;;;1.73;1.10;;;14.30;99.90;;;;;;10055746;28;20033;-66
2024/02/09 15:42:34;;;;;;;4.10;1.13;;;14.30;99.90;;;;;;10089590;28;20025;-65
2024/02/09 15:47:25;;;;;;;4.03;0.90;;;14.30;99.90;;;;;;10089233;28;20128;-65
2024/02/09 15:52:15;;;;;;;1.80;0.90;;;14.30;99.90;;;;;;10090107;28;20136;-65
2024/02/09 15:57:06;;;;;;;2.65;0.90;;;14.10;99.90;;;;;;10086336;28;20035;-64
2024/02/09 16:01:57;;;;;;;1.05;0.80;;;14.10;99.90;;;;;;10075399;28;20037;-64
2024/02/09 16:06:49;;;;;;;3.20;0.98;;;14.10;99.90;;;;;;10077995;28;20045;-65
2024/02/09 16:11:40;;;;;;;2.05;1.17;;;14.00;99.90;;;;;;10087050;28;20136;-63
2024/02/09 16:16:31;;;;;;;0.95;0.80;;;14.00;99.90;;;;;;10085017;28;20041;-64
2024/02/09 16:21:22;;;;;;;4.43;0.90;;;14.00;99.90;;;;;;10092680;28;20059;-64
2024/02/09 16:26:13;;;;;;;1.48;1.02;;;13.90;99.90;;;;;;10090373;28;20041;-65
2024/02/09 16:31:08;;;;;;;3.05;1.20;;;13.90;99.90;;;;;;10093006;28;20268;-65
2024/02/09 16:35:58;;;;;;;1.38;0.90;;;13.80;99.90;;;;;;10093849;28;20529;-64
2024/02/09 16:40:49;;;;;;;1.95;0.93;;;13.80;99.90;;;;;;10100132;28;20090;-66
2024/02/09 16:45:40;;;;;;;2.67;0.93;;;13.80;99.90;;;;;;10102391;28;20070;-64
2024/02/09 16:50:30;;;;;;;2.15;1.10;;;13.80;99.90;;;;;;10100205;28;20049;-64
2024/02/09 16:55:21;;;;;;;1.85;1.17;;;13.80;99.90;;;;;;10100753;28;20021;-65
2024/02/09 17:00:14;;;;;;;2.97;0.85;;;13.80;99.90;;;;;;10098345;28;20037;-63
2024/02/09 17:05:05;;;;;;;5.07;1.52;;;13.70;99.90;;;;;;10097802;28;20033;-65
2024/02/09 17:09:55;;;;;;;7.88;3.60;;;13.70;99.90;;;;;;10098643;28;20044;-64
2024/02/09 17:14:46;;;;;;;1.65;1.30;;;13.60;99.90;;;;;;10099225;28;20375;-64
2024/02/09 17:19:37;;;;;;;2.38;1.45;;;13.70;99.90;;;;;;10090916;28;20032;-64
2024/02/09 17:24:28;;;;;;;1.90;0.98;;;13.70;99.90;;;;;;10099442;28;20060;-64
2024/02/09 17:29:19;;;;;;;4.60;1.25;;;13.70;99.90;;;;;;10099023;28;20048;-66
2024/02/09 17:34:09;;;;;;;1.25;0.80;;;13.60;99.90;;;;;;10095027;28;20033;-64
2024/02/09 17:39:00;;;;;;;1.73;0.73;;;13.60;99.90;;;;;;10103456;28;20321;-64
2024/02/09 17:43:50;;;;;;;2.42;1.10;;;13.60;99.90;;;;;;10100242;28;20425;-63
2024/02/09 17:48:41;;;;;;;2.80;0.95;;;13.60;99.90;;;;;;10098871;28;20495;-63
2024/02/09 17:53:33;;;;;;;1.88;1.13;;;13.60;99.90;;;;;;10081031;28;20029;-63
2024/02/09 17:58:24;;;;;;;1.58;0.55;;;13.60;99.90;;;;;;10099766;28;20040;-63
2024/02/09 18:03:15;;;;;;;3.03;0.82;;;13.60;99.90;;;;;;10099106;28;20506;-65
2024/02/09 18:08:06;;;;;;;2.65;0.85;;;13.60;99.90;;;;;;10101732;28;20041;-63
2024/02/09 18:12:59;;;;;;;2.13;1.08;;;13.60;99.90;;;;;;10099774;28;20028;-63
2024/02/09 18:17:51;;;;;;;1.42;0.88;;;13.60;99.90;;;;;;10103265;28;20029;-63
2024/02/09 18:22:42;;;;;;;1.55;0.70;;;13.60;99.90;;;;;;10100167;28;20021;-63
2024/02/09 18:27:32;;;;;;;2.75;1.30;;;13.50;99.90;;;;;;10100188;28;20079;-63
2024/02/09 18:32:24;;;;;;;1.08;0.90;;;13.50;99.90;;;;;;10092320;28;20516;-63
2024/02/09 18:37:16;;;;;;;2.10;0.95;;;13.50;99.90;;;;;;10099247;28;20112;-64
2024/02/09 18:42:06;;;;;;;3.40;1.10;;;13.50;99.90;;;;;;10097975;28;20028;-62
2024/02/09 18:46:57;;;;;;;2.28;1.00;;;13.40;99.90;;;;;;10098356;28;20036;-63
2024/02/09 18:51:51;;;;;;;2.58;1.40;;;13.40;99.90;;;;;;10097525;28;20025;-65
2024/02/09 18:56:42;;;;;;;2.95;1.42;;;13.40;99.90;;;;;;10098545;28;20067;-62
2024/02/09 19:01:33;;;;;;;1.55;1.20;;;13.40;99.90;;;;;;10101724;28;20029;-63
2024/02/09 19:06:23;;;;;;;3.72;1.60;;;13.40;99.90;;;;;;10086115;28;20120;-62
2024/02/09 19:11:16;;;;;;;2.65;1.45;;;13.40;99.90;;;;;;10083935;28;20052;-63
2024/02/09 19:16:07;;;;;;;2.65;1.35;;;13.30;99.90;;;;;;10086824;28;20067;-62
2024/02/09 19:20:59;;;;;;;3.67;1.55;;;13.30;99.90;;;;;;10103551;28;20494;-64
2024/02/09 19:25:49;;;;;;;3.40;1.70;;;13.30;99.90;;;;;;10107249;28;20044;-61
2024/02/09 19:30:43;;;;;;;3.40;2.10;;;13.30;99.90;;;;;;10094338;28;20029;-62
2024/02/09 19:35:33;;;;;;;2.88;1.85;;;13.30;99.90;;;;;;10103724;28;20029;-63
2024/02/09 19:40:26;;;;;;;4.38;2.03;;;13.20;99.90;;;;;;10100220;28;20096;-63
2024/02/09 19:45:18;;;;;;;4.03;1.90;;;13.30;99.90;;;;;;10100000;28;20041;-62
2024/02/09 19:50:14;;;;;;;4.97;2.72;;;13.20;99.90;;;;;;10102703;28;20112;-62
2024/02/09 19:55:04;;;;;;;;;;;13.30;99.90;;;;;;10106231;28;20040;-63
2024/02/09 19:59:57;;;;;;;5.38;2.92;;;13.30;99.90;;;;;;10099499;28;19908;-63
2024/02/09 20:04:47;;;;;;;4.90;2.58;;;13.30;99.90;;;;;;10097721;28;20025;-63
2024/02/09 20:09:38;;;;;;;4.25;2.33;;;13.20;99.90;;;;;;10104972;28;20079;-62
2024/02/09 20:14:29;;;;;;;3.55;2.58;;;13.20;99.90;;;;;;10105933;28;20029;-63
2024/02/09 20:19:19;;;;;;;4.70;2.58;;;13.20;99.90;;;;;;10105604;28;20060;-62
2024/02/09 20:24:10;;;;;;;4.45;2.75;;;13.20;99.90;;;;;;10089005;28;20024;-63
2024/02/09 20:29:07;;;;;;;8.15;3.15;;;13.20;99.90;;;;;;10123425;28;20044;-63
2024/02/09 20:33:58;;;;;;;6.65;3.22;;;13.20;99.90;;;;;;10115475;28;20022;-63
2024/02/09 20:38:48;;;;;;;5.20;2.63;;;13.20;99.90;;;;;;10114990;28;20033;-62
2024/02/09 20:43:39;;;;;;;5.13;2.25;;;13.20;99.90;;;;;;10119173;28;20298;-63
2024/02/09 20:48:30;;;;;;;7.07;2.90;;;13.10;99.90;;;;;;10112448;28;20104;-63
2024/02/09 20:53:26;;;;;;;4.60;2.95;;;13.20;99.90;;;;;;10110918;28;20017;-63
2024/02/09 20:58:16;;;;;;;4.38;2.55;;;13.20;99.90;;;;;;10111618;28;20049;-63
2024/02/09 21:03:07;;;;;;;6.57;2.97;;;13.20;99.90;;;;;;10108517;28;20208;-63
2024/02/09 21:07:58;;;;;;;5.22;3.20;;;13.20;99.90;;;;;;10119739;28;20346;-64
2024/02/09 21:12:49;;;;;;;2.75;2.17;;;13.20;99.90;;;;;;10094541;28;20040;-63
2024/02/09 21:17:41;;;;;;;3.65;2.40;;;13.10;99.90;;;;;;10114592;28;20040;-64
2024/02/09 21:22:38;;;;;;;2.80;2.00;;;13.10;99.90;;;;;;10115411;28;20388;-64
2024/02/09 21:27:28;;;;;;;4.15;2.28;;;13.20;99.90;;;;;;10114279;28;20065;-63
2024/02/09 21:32:19;;;;;;;4.70;2.55;;;13.20;99.90;;;;;;10105883;28;20033;-64
2024/02/09 21:37:10;;;;;;;2.25;1.95;;;13.10;99.90;;;;;;10113308;28;20509;-64
2024/02/09 21:42:01;;;;;;;2.50;1.73;;;13.10;99.90;;;;;;10115399;28;20036;-65
2024/02/09 21:46:51;;;;;;;2.90;2.25;;;13.10;99.90;;;;;;10114258;28;20143;-65
2024/02/09 21:51:42;;;;;;;5.50;2.15;;;13.10;99.90;;;;;;10115214;28;20161;-65
2024/02/09 21:56:33;;;;;;;2.58;1.95;;;13.10;99.90;;;;;;10116345;28;20345;-63
2024/02/09 22:01:28;;;;;;;3.55;2.15;;;13.00;99.90;;;;;;10112396;28;20184;-63
2024/02/09 22:06:19;;;;;;;4.25;2.20;;;13.00;99.90;;;;;;10105714;28;20501;-64
2024/02/09 22:11:10;;;;;;;3.85;2.53;;;13.00;99.90;;;;;;10109878;28;20021;-64
2024/02/09 22:16:11;;;;;;;3.58;2.42;;;13.00;99.90;;;;;;10108435;28;20450;-62
2024/02/09 22:21:04;;;;;;;3.33;2.28;;;13.00;99.90;;;;;;10086941;28;20025;-63
2024/02/09 22:25:55;;;;;;;4.00;2.17;;;13.00;99.90;;;;;;10113749;28;20393;-66
2024/02/09 22:30:46;;;;;;;3.63;1.83;;;13.10;99.90;;;;;;10102793;28;20123;-64
2024/02/09 22:35:37;;;;;;;4.10;1.92;;;13.00;99.90;;;;;;10096852;28;20062;-63
2024/02/09 22:40:28;;;;;;;3.45;2.00;;;13.00;99.90;;;;;;10103971;28;20025;-63
2024/02/09 22:45:22;;;;;;;2.63;2.10;;;13.10;99.90;;;;;;10107650;28;20040;-63
2024/02/09 22:50:13;;;;;;;2.90;1.67;;;13.00;99.90;;;;;;10115414;28;20037;-63
2024/02/09 22:55:04;;;;;;;3.58;1.83;;;13.00;99.90;;;;;;10107540;28;20032;-63
2024/02/09 22:59:55;;;;;;;3.08;1.45;;;13.00;99.90;;;;;;10114518;28;20493;-63
2024/02/09 23:04:53;;;;;;;2.30;1.33;;;13.00;99.90;;;;;;10105102;28;20504;-63
2024/02/09 23:09:44;;;;;;;2.90;2.03;;;13.00;99.90;;;;;;10114070;28;20037;-62
2024/02/09 23:14:35;;;;;;;3.35;1.52;;;13.00;99.90;;;;;;10105523;28;20037;-62
2024/02/09 23:19:27;;;;;;;1.75;1.50;;;13.00;99.90;;;;;;10108634;28;20025;-62
2024/02/09 23:24:21;;;;;;;4.50;1.67;;;13.00;99.90;;;;;;10111086;28;20051;-63
2024/02/09 23:29:11;;;;;;;2.28;1.50;;;13.00;99.90;;;;;;10112909;28;20041;-65
2024/02/09 23:34:02;;;;;;;3.20;1.83;;;13.00;99.90;;;;;;10106282;28;20037;-62
2024/02/09 23:38:53;;;;;;;3.22;1.70;;;13.00;99.90;;;;;;10091307;28;20114;-62
2024/02/09 23:43:44;;;;;;;3.60;1.98;;;13.00;99.90;;;;;;10089765;28;20060;-63
2024/02/09 23:48:38;;;;;;;2.47;1.75;;;13.00;99.90;;;;;;10098187;28;20063;-61
2024/02/09 23:53:29;;;;;;;2.85;2.53;;;12.90;99.90;;;;;;10093989;28;20056;-62
2024/02/09 23:58:19;;;;;;;5.20;2.33;;;12.90;99.90;;;;;;10100456;28;20042;-62
